Time;durP1;ratioP1;P1;durP2;ratioP2;P2;SDS_P1;SDS_P2;PMS_P1;PMS_P2;Temp;Humidity;BMP_temperature;BMP_pressure;BME280_temperature;BME280_humidity;BME280_pressure;Samples;Min_cycle;Max_cycle;Signal;HPM_P1;HPM_P2
2024/04/10 00:01:06;;;;;;;7.60;3.97;;;10.70;99.90;;;;;;5564341;25;20490;-69
2024/04/10 00:03:36;;;;;;;6.00;4.00;;;10.70;99.90;;;;;;5566011;25;20449;-69
2024/04/10 00:06:05;;;;;;;6.30;3.93;;;10.70;99.90;;;;;;5567209;25;20433;-69
2024/04/10 00:08:39;;;;;;;6.50;4.33;;;10.70;99.90;;;;;;5564037;25;20492;-69
2024/04/10 00:11:06;;;;;;;5.67;4.10;;;10.70;99.90;;;;;;5566356;25;20894;-69
2024/04/10 00:13:37;;;;;;;7.77;4.50;;;10.70;99.90;;;;;;5566133;25;20782;-69
2024/04/10 00:16:06;;;;;;;6.93;4.17;;;10.70;99.90;;;;;;5567140;25;20775;-69
2024/04/10 00:18:37;;;;;;;7.37;4.53;;;10.70;99.90;;;;;;5565829;25;20445;-69
2024/04/10 00:21:05;;;;;;;6.37;4.40;;;10.70;99.90;;;;;;5567183;25;20390;-69
2024/04/10 00:23:35;;;;;;;6.47;4.20;;;10.70;99.90;;;;;;5565909;25;20441;-69
2024/04/10 00:26:05;;;;;;;7.53;3.77;;;10.70;99.90;;;;;;5563974;25;20441;-69
2024/04/10 00:28:36;;;;;;;8.40;4.00;;;10.70;99.90;;;;;;5567332;25;20398;-69
2024/04/10 00:31:04;;;;;;;6.03;4.30;;;10.80;99.90;;;;;;5567147;25;20386;-69
2024/04/10 00:33:38;;;;;;;6.50;4.30;;;10.70;99.90;;;;;;5565361;25;20635;-69
2024/04/10 00:36:08;;;;;;;9.53;5.03;;;10.70;99.90;;;;;;5567042;25;20425;-69
2024/04/10 00:38:38;;;;;;;7.60;3.87;;;10.80;99.90;;;;;;5565947;25;21034;-69
2024/04/10 00:41:08;;;;;;;7.00;4.03;;;10.80;99.90;;;;;;5566811;25;20457;-69
2024/04/10 00:43:39;;;;;;;6.37;2.97;;;10.80;99.90;;;;;;5564917;25;20553;-69
2024/04/10 00:46:10;;;;;;;6.10;3.50;;;10.80;99.90;;;;;;5565411;25;20433;-69
2024/04/10 00:48:41;;;;;;;5.30;3.50;;;10.80;99.90;;;;;;5563480;25;21063;-69
2024/04/10 00:51:10;;;;;;;7.27;4.50;;;10.80;99.90;;;;;;5566831;25;20430;-69
2024/04/10 00:53:42;;;;;;;7.47;4.27;;;10.80;99.90;;;;;;5565432;25;20496;-69
2024/04/10 00:56:12;;;;;;;8.10;4.20;;;10.80;99.90;;;;;;5566754;25;20406;-69
2024/04/10 00:58:43;;;;;;;8.03;4.03;;;10.80;99.90;;;;;;5566792;25;20459;-69
2024/04/10 01:01:13;;;;;;;9.40;4.77;;;10.80;99.90;;;;;;5565892;25;20771;-69
2024/04/10 01:03:44;;;;;;;6.70;4.10;;;10.80;99.90;;;;;;5566552;25;20437;-69
2024/04/10 01:06:11;;;;;;;6.70;4.17;;;10.80;99.90;;;;;;5566563;25;20494;-69
2024/04/10 01:08:42;;;;;;;5.30;3.83;;;10.80;99.90;;;;;;5563223;25;20445;-69
2024/04/10 01:11:12;;;;;;;8.13;4.30;;;10.80;99.90;;;;;;5567980;25;20845;-69
2024/04/10 01:13:42;;;;;;;8.60;3.30;;;10.80;99.90;;;;;;5564895;25;20449;-69
2024/04/10 01:16:09;;;;;;;7.33;2.87;;;10.80;99.90;;;;;;5565060;25;20970;-69
2024/04/10 01:18:39;;;;;;;5.00;3.33;;;10.70;99.90;;;;;;5563166;25;20449;-70
2024/04/10 01:21:07;;;;;;;5.60;3.20;;;10.80;99.90;;;;;;5566568;25;20401;-70
2024/04/10 01:23:39;;;;;;;6.43;3.30;;;10.70;99.90;;;;;;5564997;25;20493;-68
2024/04/10 01:26:07;;;;;;;5.90;2.63;;;10.70;99.90;;;;;;5565992;25;20444;-68
2024/04/10 01:28:37;;;;;;;7.13;3.30;;;10.70;99.90;;;;;;5562929;25;20449;-68
2024/04/10 01:31:04;;;;;;;7.60;3.23;;;10.70;99.90;;;;;;5563998;25;20965;-68
2024/04/10 01:33:34;;;;;;;5.07;2.70;;;10.80;99.90;;;;;;5565026;25;20441;-68
2024/04/10 01:36:07;;;;;;;3.73;2.30;;;10.70;99.90;;;;;;5564977;25;20485;-68
2024/04/10 01:38:40;;;;;;;6.07;3.13;;;10.70;99.90;;;;;;5564747;25;20546;-68
2024/04/10 01:41:08;;;;;;;6.20;2.97;;;10.70;99.90;;;;;;5566776;25;20788;-68
2024/04/10 01:43:38;;;;;;;8.07;2.40;;;10.70;99.90;;;;;;5564473;25;20449;-68
2024/04/10 01:46:06;;;;;;;5.80;2.87;;;10.70;99.90;;;;;;5564440;25;20449;-68
2024/04/10 01:48:36;;;;;;;5.27;2.50;;;10.70;99.90;;;;;;5564403;25;20982;-69
2024/04/10 01:51:04;;;;;;;4.90;2.47;;;10.70;99.90;;;;;;5566118;25;20422;-68
2024/04/10 01:53:34;;;;;;;5.13;2.23;;;10.70;99.90;;;;;;5562799;25;20449;-68
2024/04/10 01:56:05;;;;;;;5.10;2.40;;;10.70;99.90;;;;;;5562312;25;20480;-68
2024/04/10 01:58:36;;;;;;;8.10;2.23;;;10.70;99.90;;;;;;5562412;25;20509;-68
2024/04/10 02:01:03;;;;;;;5.90;2.30;;;10.70;99.90;;;;;;5565291;25;20541;-68
2024/04/10 02:03:34;;;;;;;4.97;1.93;;;10.70;99.90;;;;;;5564308;25;20646;-68
2024/04/10 02:06:01;;;;;;;3.83;1.70;;;10.70;99.90;;;;;;5565675;25;20422;-68
2024/04/10 02:08:31;;;;;;;4.97;2.43;;;10.70;99.90;;;;;;5564131;25;20436;-68
2024/04/10 02:11:19;;;;;;;5.33;3.07;;;10.60;99.90;;;;;;5565663;25;20489;-68
2024/04/10 02:13:52;;;;;;;4.43;2.00;;;10.60;99.90;;;;;;5562219;25;20861;-68
2024/04/10 02:16:21;;;;;;;4.50;2.30;;;10.60;99.90;;;;;;5565423;25;20911;-68
2024/04/10 02:18:52;;;;;;;4.37;2.30;;;10.60;99.90;;;;;;5563855;25;20433;-68
2024/04/10 02:21:19;;;;;;;6.07;2.13;;;10.60;99.90;;;;;;5563941;25;20550;-68
2024/04/10 02:23:49;;;;;;;7.30;2.77;;;10.60;99.90;;;;;;5563813;25;20790;-68
2024/04/10 02:26:17;;;;;;;5.60;2.83;;;10.60;99.90;;;;;;5561924;25;20453;-68
2024/04/10 02:28:47;;;;;;;5.03;2.50;;;10.60;99.90;;;;;;5563772;25;20485;-68
2024/04/10 02:31:18;;;;;;;5.70;2.80;;;10.60;99.90;;;;;;5565197;25;20390;-68
2024/04/10 02:33:48;;;;;;;7.20;3.13;;;10.50;99.90;;;;;;5561884;25;20503;-68
2024/04/10 02:36:15;;;;;;;7.13;2.30;;;10.50;99.90;;;;;;5563747;25;20493;-69
2024/04/10 02:38:45;;;;;;;5.43;2.57;;;10.50;99.90;;;;;;5563556;25;20482;-68
2024/04/10 02:41:13;;;;;;;5.33;2.50;;;10.50;99.90;;;;;;5563571;25;20430;-68
2024/04/10 02:43:43;;;;;;;6.07;3.07;;;10.50;99.90;;;;;;5563510;25;20452;-68
2024/04/10 02:46:10;;;;;;;4.07;2.47;;;10.50;99.90;;;;;;5563456;25;20430;-68
2024/04/10 02:48:43;;;;;;;5.90;2.70;;;10.50;99.90;;;;;;5561356;25;20553;-68
2024/04/10 02:51:11;;;;;;;7.00;3.47;;;10.40;99.90;;;;;;5561617;25;20441;-68
2024/04/10 02:53:41;;;;;;;5.13;2.50;;;10.40;99.90;;;;;;5563287;25;20450;-68
2024/04/10 02:56:08;;;;;;;6.97;2.97;;;10.40;99.90;;;;;;5563099;25;20433;-68
2024/04/10 02:58:39;;;;;;;4.47;2.90;;;10.40;99.90;;;;;;5563228;25;20855;-68
2024/04/10 03:01:10;;;;;;;6.10;2.97;;;10.40;99.90;;;;;;5563156;25;20437;-68
2024/04/10 03:03:43;;;;;;;3.90;2.70;;;10.40;99.90;;;;;;5564143;25;20453;-68
2024/04/10 03:06:10;;;;;;;5.70;2.93;;;10.40;99.90;;;;;;5564099;25;20445;-68
2024/04/10 03:08:40;;;;;;;5.10;3.30;;;10.40;99.90;;;;;;5566921;25;21052;-68
2024/04/10 03:11:08;;;;;;;5.27;2.90;;;10.40;99.90;;;;;;5566945;25;20449;-68
2024/04/10 03:13:39;;;;;;;6.30;2.90;;;10.40;99.90;;;;;;5566789;25;21036;-68
2024/04/10 03:16:07;;;;;;;5.90;2.97;;;10.50;99.90;;;;;;5564925;25;20806;-68
2024/04/10 03:18:37;;;;;;;6.33;3.47;;;10.40;99.90;;;;;;5566770;25;20441;-68
2024/04/10 03:21:07;;;;;;;5.93;2.80;;;10.40;99.90;;;;;;5567265;25;20820;-68
2024/04/10 03:23:37;;;;;;;6.30;2.83;;;10.40;99.90;;;;;;5566833;25;20449;-68
2024/04/10 03:26:05;;;;;;;6.53;2.80;;;10.40;99.90;;;;;;5566669;25;20481;-69
2024/04/10 03:28:36;;;;;;;4.47;2.40;;;10.40;99.90;;;;;;5566640;25;20437;-68
2024/04/10 03:31:06;;;;;;;5.83;2.83;;;10.40;99.90;;;;;;5566505;25;20433;-68
2024/04/10 03:33:36;;;;;;;5.03;2.67;;;10.40;99.90;;;;;;5567628;25;20856;-68
2024/04/10 03:36:07;;;;;;;4.30;2.40;;;10.40;99.90;;;;;;5564525;25;20444;-68
2024/04/10 03:38:37;;;;;;;6.73;2.50;;;10.40;99.90;;;;;;5567497;25;20413;-69
2024/04/10 03:41:04;;;;;;;5.00;2.80;;;10.40;99.90;;;;;;5566391;25;20437;-68
2024/04/10 03:43:35;;;;;;;5.33;2.67;;;10.40;99.90;;;;;;5564516;25;20461;-68
2024/04/10 03:46:06;;;;;;;3.37;2.30;;;10.40;99.90;;;;;;5566917;25;20702;-68
2024/04/10 03:48:36;;;;;;;5.63;2.20;;;10.30;99.90;;;;;;5567343;25;20422;-69
2024/04/10 03:51:10;;;;;;;2.73;2.07;;;10.30;99.90;;;;;;5567478;25;20398;-68
2024/04/10 03:53:38;;;;;;;8.40;2.57;;;10.30;99.90;;;;;;5567596;25;20958;-68
2024/04/10 03:56:08;;;;;;;3.30;1.50;;;10.30;99.90;;;;;;5564367;25;20441;-68
2024/04/10 03:58:36;;;;;;;3.90;2.37;;;10.30;99.90;;;;;;5566320;25;20545;-68
2024/04/10 04:01:06;;;;;;;5.10;2.03;;;10.30;99.90;;;;;;5566336;25;20860;-68
2024/04/10 04:03:35;;;;;;;3.80;1.97;;;10.30;99.90;;;;;;5564308;25;20465;-68
2024/04/10 04:06:05;;;;;;;3.63;1.90;;;10.30;99.90;;;;;;5566237;25;20485;-68
2024/04/10 04:08:36;;;;;;;4.93;1.70;;;10.30;99.90;;;;;;5567422;25;20413;-68
2024/04/10 04:11:06;;;;;;;3.03;1.80;;;10.30;99.90;;;;;;5567337;25;20478;-68
2024/04/10 04:13:37;;;;;;;4.13;1.40;;;10.20;99.90;;;;;;5566400;25;20494;-68
2024/04/10 04:16:08;;;;;;;2.80;1.27;;;10.30;99.90;;;;;;5566709;25;20394;-68
2024/04/10 04:18:36;;;;;;;3.83;1.30;;;10.20;99.90;;;;;;5563673;25;20962;-68
2024/04/10 04:21:07;;;;;;;2.50;1.60;;;10.20;99.90;;;;;;5564106;25;20445;-68
2024/04/10 04:23:38;;;;;;;2.90;1.70;;;10.20;99.90;;;;;;5564071;25;20501;-68
2024/04/10 04:26:08;;;;;;;4.27;2.00;;;10.20;99.90;;;;;;5566180;25;20519;-68
2024/04/10 04:28:35;;;;;;;3.33;1.57;;;10.20;99.90;;;;;;5565877;25;20438;-68
2024/04/10 04:31:05;;;;;;;2.97;1.50;;;10.20;99.90;;;;;;5565767;25;20480;-68
2024/04/10 04:33:35;;;;;;;2.77;1.30;;;10.20;99.90;;;;;;5567037;25;20489;-68
2024/04/10 04:36:06;;;;;;;3.57;1.67;;;10.10;99.90;;;;;;5565833;25;20512;-68
2024/04/10 04:38:33;;;;;;;2.73;1.10;;;10.10;99.90;;;;;;5567390;25;20827;-68
2024/04/10 04:41:07;;;;;;;3.33;1.40;;;10.10;99.90;;;;;;5565655;25;20489;-68
2024/04/10 04:43:34;;;;;;;4.20;1.80;;;10.10;99.90;;;;;;5563855;25;20509;-68
2024/04/10 04:46:07;;;;;;;2.60;1.53;;;10.10;99.90;;;;;;5565506;25;20433;-68
2024/04/10 04:48:35;;;;;;;2.67;1.70;;;10.10;99.90;;;;;;5566443;25;20441;-68
2024/04/10 04:51:10;;;;;;;3.20;1.60;;;10.10;99.90;;;;;;5565626;25;20544;-69
2024/04/10 04:53:38;;;;;;;3.50;1.77;;;10.10;99.90;;;;;;5566882;25;20441;-68
2024/04/10 04:56:11;;;;;;;4.73;1.50;;;10.00;99.90;;;;;;5563541;25;20460;-68
2024/04/10 04:58:38;;;;;;;4.70;1.67;;;10.00;99.90;;;;;;5563622;25;20461;-68
2024/04/10 05:01:09;;;;;;;4.13;1.50;;;10.00;99.90;;;;;;5565346;25;20542;-68
2024/04/10 05:06:25;;;;;;;5.60;2.27;;;9.90;99.90;;;;;;5566409;25;20491;-68
2024/04/10 05:08:58;;;;;;;4.87;2.10;;;9.90;99.90;;;;;;5565417;25;20485;-70
2024/04/10 05:11:30;;;;;;;4.10;1.70;;;9.90;99.90;;;;;;5565296;25;20515;-69
2024/04/10 05:13:58;;;;;;;6.63;1.90;;;9.90;99.90;;;;;;5566541;25;20587;-70
2024/04/10 05:16:28;;;;;;;4.50;2.00;;;9.90;99.90;;;;;;5565309;25;20433;-69
2024/04/10 05:18:55;;;;;;;3.57;1.50;;;9.90;99.90;;;;;;5566874;25;20780;-69
2024/04/10 05:21:25;;;;;;;6.80;1.50;;;9.90;99.90;;;;;;5565450;25;20434;-69
2024/04/10 05:23:53;;;;;;;6.70;2.23;;;9.90;99.90;;;;;;5565299;25;20846;-69
2024/04/10 05:26:25;;;;;;;4.40;1.30;;;9.90;99.90;;;;;;5565443;25;20985;-70
2024/04/10 05:28:55;;;;;;;6.77;2.10;;;9.90;99.90;;;;;;5566511;25;20919;-70
2024/04/10 05:31:26;;;;;;;4.80;1.93;;;9.90;99.90;;;;;;5563218;25;20448;-70
2024/04/10 05:33:53;;;;;;;5.37;1.97;;;10.00;99.90;;;;;;5565133;25;20452;-70
2024/04/10 05:36:24;;;;;;;5.50;1.70;;;10.00;99.90;;;;;;5565016;25;20442;-69
2024/04/10 05:38:52;;;;;;;3.10;1.70;;;10.00;99.90;;;;;;5564822;25;20433;-68
2024/04/10 05:41:23;;;;;;;5.20;2.03;;;10.00;99.90;;;;;;5564867;25;20445;-69
2024/04/10 05:43:51;;;;;;;5.83;1.30;;;10.00;99.90;;;;;;5564676;25;20445;-70
2024/04/10 05:46:26;;;;;;;3.23;1.60;;;10.00;99.90;;;;;;5564835;25;20437;-70
2024/04/10 05:48:53;;;;;;;3.90;1.73;;;10.00;99.90;;;;;;5565603;25;20509;-70
2024/04/10 05:51:24;;;;;;;2.40;1.27;;;10.00;99.90;;;;;;5563504;25;20445;-70
2024/04/10 05:53:52;;;;;;;6.70;1.40;;;10.00;99.90;;;;;;5564469;25;20446;-69
2024/04/10 05:56:22;;;;;;;3.10;1.77;;;10.10;99.90;;;;;;5562626;25;20494;-70
2024/04/10 05:58:50;;;;;;;2.10;1.10;;;10.10;99.90;;;;;;5562630;25;20486;-70
2024/04/10 06:01:23;;;;;;;2.73;1.53;;;10.10;99.90;;;;;;5565155;25;20433;-70
2024/04/10 06:03:51;;;;;;;4.00;1.20;;;10.10;99.90;;;;;;5565918;25;20441;-70
2024/04/10 06:06:21;;;;;;;4.63;1.40;;;10.20;99.90;;;;;;5562652;25;20530;-69
2024/04/10 06:08:49;;;;;;;4.57;1.63;;;10.20;99.90;;;;;;5562523;25;20513;-70
2024/04/10 06:11:19;;;;;;;3.70;2.03;;;10.20;99.90;;;;;;5564403;25;20907;-70
2024/04/10 06:13:51;;;;;;;5.07;1.43;;;10.20;99.90;;;;;;5566193;25;20780;-70
2024/04/10 06:16:24;;;;;;;2.90;1.60;;;10.20;99.90;;;;;;5566131;25;20394;-70
2024/04/10 06:18:51;;;;;;;5.33;1.47;;;10.30;99.90;;;;;;5562416;25;20495;-70
2024/04/10 06:21:21;;;;;;;4.97;1.40;;;10.50;99.90;;;;;;5564578;25;20494;-70
2024/04/10 06:23:49;;;;;;;3.80;1.40;;;10.60;99.90;;;;;;5564766;25;20501;-70
2024/04/10 06:26:19;;;;;;;6.50;1.47;;;10.70;99.90;;;;;;5564107;25;20787;-70
2024/04/10 06:28:47;;;;;;;4.30;1.73;;;10.80;99.90;;;;;;5565362;25;20430;-69
2024/04/10 06:31:17;;;;;;;4.93;2.17;;;11.00;99.90;;;;;;5564233;25;20479;-70
2024/04/10 06:33:47;;;;;;;5.37;1.97;;;11.10;99.90;;;;;;5561969;25;20469;-70
2024/04/10 06:36:17;;;;;;;4.27;1.90;;;11.10;99.90;;;;;;5565237;25;20394;-70
2024/04/10 06:38:45;;;;;;;3.93;1.83;;;11.10;99.90;;;;;;5562021;25;20453;-70
2024/04/10 06:41:15;;;;;;;8.17;1.93;;;11.10;99.90;;;;;;5566579;25;20778;-71
2024/04/10 06:43:42;;;;;;;5.20;1.60;;;11.20;99.90;;;;;;5567435;25;20502;-70
2024/04/10 06:46:12;;;;;;;7.10;2.07;;;11.30;99.90;;;;;;5565621;25;20550;-70
2024/04/10 06:48:40;;;;;;;4.53;1.60;;;11.50;99.90;;;;;;5567481;25;20546;-71
2024/04/10 06:51:13;;;;;;;3.50;1.47;;;11.50;99.90;;;;;;5568371;25;20486;-70
2024/04/10 06:53:40;;;;;;;5.40;1.83;;;11.60;99.90;;;;;;5568543;25;21053;-70
2024/04/10 06:56:11;;;;;;;6.83;2.30;;;11.50;99.90;;;;;;5565576;25;20554;-70
2024/04/10 06:58:39;;;;;;;6.40;1.70;;;11.60;99.90;;;;;;5568316;25;20390;-70
2024/04/10 07:01:10;;;;;;;5.07;2.03;;;11.80;99.90;;;;;;5567478;25;20434;-70
2024/04/10 07:03:39;;;;;;;6.33;1.80;;;11.90;99.90;;;;;;5565439;25;20501;-70
2024/04/10 07:06:14;;;;;;;5.67;1.70;;;12.10;99.90;;;;;;5567283;25;20517;-70
2024/04/10 07:08:45;;;;;;;3.70;1.47;;;12.20;99.90;;;;;;5568192;25;20937;-70
2024/04/10 07:11:15;;;;;;;5.97;2.13;;;12.30;99.90;;;;;;5565425;25;20497;-71
2024/04/10 07:13:50;;;;;;;5.27;1.97;;;12.40;99.90;;;;;;5568522;25;20449;-70
2024/04/10 07:16:18;;;;;;;5.70;1.93;;;12.50;99.90;;;;;;5568138;25;20398;-70
2024/04/10 07:18:48;;;;;;;5.10;2.07;;;12.60;99.90;;;;;;5567215;25;20485;-70
2024/04/10 07:21:19;;;;;;;5.77;2.00;;;12.60;99.90;;;;;;5567258;25;20524;-70
2024/04/10 07:23:51;;;;;;;11.63;2.70;;;12.70;99.90;;;;;;5568170;25;20486;-70
2024/04/10 07:26:25;;;;;;;5.20;1.87;;;12.70;99.90;;;;;;5565439;25;20461;-70
2024/04/10 07:28:57;;;;;;;3.60;2.20;;;12.70;99.90;;;;;;5567503;25;20546;-70
2024/04/10 07:31:28;;;;;;;7.13;1.67;;;12.70;99.90;;;;;;5565228;25;20844;-70
2024/04/10 07:34:00;;;;;;;5.00;1.83;;;12.90;99.90;;;;;;5574527;25;20489;-71
2024/04/10 07:36:31;;;;;;;5.03;1.90;;;12.90;99.90;;;;;;5568192;25;20401;-70
2024/04/10 07:39:08;;;;;;;5.70;2.40;;;13.00;99.90;;;;;;5567980;25;20541;-70
2024/04/10 07:41:37;;;;;;;6.23;2.20;;;12.90;99.90;;;;;;5567833;25;20490;-70
2024/04/10 07:44:08;;;;;;;8.17;2.70;;;12.80;99.90;;;;;;5567867;25;20445;-70
2024/04/10 07:46:36;;;;;;;5.17;2.57;;;12.80;99.90;;;;;;5564801;25;21081;-70
2024/04/10 07:49:09;;;;;;;7.00;2.20;;;12.70;99.90;;;;;;5566407;25;20457;-70
2024/04/10 07:51:41;;;;;;;5.47;2.20;;;12.80;99.90;;;;;;5563131;25;20508;-70
2024/04/10 07:54:11;;;;;;;9.43;2.50;;;12.70;99.90;;;;;;5564377;25;20562;-70
2024/04/10 07:56:39;;;;;;;7.30;2.50;;;12.60;99.90;;;;;;5567463;25;20433;-70
2024/04/10 07:59:09;;;;;;;5.37;2.13;;;12.60;99.90;;;;;;5564675;25;20493;-70
2024/04/10 08:01:36;;;;;;;6.93;2.80;;;12.60;99.90;;;;;;5567060;25;20437;-70
2024/04/10 08:04:06;;;;;;;5.93;2.40;;;12.60;99.90;;;;;;5567349;25;20892;-70
2024/04/10 08:06:36;;;;;;;6.47;2.60;;;12.70;99.90;;;;;;5568120;25;20762;-70
2024/04/10 08:09:09;;;;;;;5.57;2.60;;;12.80;99.90;;;;;;5565464;25;20441;-70
2024/04/10 08:11:36;;;;;;;7.17;2.97;;;12.70;99.90;;;;;;5567891;25;20421;-70
2024/04/10 08:14:07;;;;;;;5.17;2.40;;;12.70;99.90;;;;;;5567022;25;20527;-70
2024/04/10 08:16:34;;;;;;;7.53;2.63;;;12.70;99.90;;;;;;5566942;25;20437;-70
2024/04/10 08:19:06;;;;;;;7.67;2.60;;;12.80;99.90;;;;;;5566683;25;20778;-70
2024/04/10 08:21:36;;;;;;;6.40;3.23;;;12.90;99.90;;;;;;5567834;25;20391;-71
2024/04/10 08:24:09;;;;;;;6.47;2.30;;;13.00;99.90;;;;;;5568090;25;20493;-70
2024/04/10 08:26:37;;;;;;;6.97;2.77;;;13.00;99.90;;;;;;5567853;25;20398;-70
2024/04/10 08:29:08;;;;;;;6.50;2.20;;;13.10;99.90;;;;;;5566575;25;20434;-70
2024/04/10 08:31:36;;;;;;;8.57;2.27;;;13.10;99.90;;;;;;5567804;25;20500;-70
2024/04/10 08:34:07;;;;;;;5.20;2.23;;;13.10;99.90;;;;;;5566615;25;20461;-70
2024/04/10 08:36:35;;;;;;;7.87;2.83;;;13.10;99.90;;;;;;5564930;25;20895;-70
2024/04/10 08:39:08;;;;;;;7.47;2.40;;;13.10;99.90;;;;;;5566173;25;20489;-70
2024/04/10 08:41:39;;;;;;;6.17;2.13;;;13.10;99.90;;;;;;5567932;25;20476;-70
2024/04/10 08:44:11;;;;;;;5.13;2.43;;;13.00;99.90;;;;;;5567337;25;20453;-70
2024/04/10 08:46:40;;;;;;;8.03;2.60;;;13.10;99.90;;;;;;5567303;25;20394;-69
2024/04/10 08:49:11;;;;;;;5.90;2.50;;;13.30;99.90;;;;;;5564087;25;21058;-70
2024/04/10 08:51:40;;;;;;;6.53;2.30;;;13.40;99.90;;;;;;5564478;25;20450;-69
2024/04/10 08:54:13;;;;;;;4.83;2.47;;;13.50;99.90;;;;;;5566243;25;20894;-70
2024/04/10 08:56:41;;;;;;;4.80;2.30;;;13.70;99.90;;;;;;5567717;25;20426;-70
2024/04/10 08:59:11;;;;;;;5.13;2.60;;;13.80;99.90;;;;;;5564324;25;21067;-71
2024/04/10 09:01:41;;;;;;;5.60;2.30;;;13.80;99.90;;;;;;5564525;25;20554;-69
2024/04/10 09:04:13;;;;;;;5.80;2.63;;;13.80;99.90;;;;;;5566263;25;20477;-70
2024/04/10 09:06:41;;;;;;;9.07;2.93;;;13.90;99.90;;;;;;5568394;25;20406;-70
2024/04/10 09:09:15;;;;;;;5.43;2.03;;;13.90;99.90;;;;;;5566004;25;20489;-70
2024/04/10 09:11:42;;;;;;;6.27;2.53;;;13.90;99.90;;;;;;5567129;25;20390;-70
2024/04/10 09:14:15;;;;;;;5.80;2.00;;;13.90;99.90;;;;;;5563210;25;20453;-70
2024/04/10 09:16:43;;;;;;;4.47;2.53;;;13.90;99.90;;;;;;5566435;25;20478;-70
2024/04/10 09:19:15;;;;;;;4.70;2.13;;;13.90;99.90;;;;;;5564964;25;20804;-70
2024/04/10 09:21:44;;;;;;;5.90;2.33;;;13.90;99.90;;;;;;5567438;25;20911;-70
2024/04/10 09:24:17;;;;;;;7.13;2.53;;;13.80;99.90;;;;;;5564979;25;21001;-71
2024/04/10 09:26:48;;;;;;;7.23;2.80;;;13.80;99.90;;;;;;5565306;25;20445;-70
2024/04/10 09:29:24;;;;;;;6.33;2.77;;;13.90;99.90;;;;;;5562942;25;20444;-70
2024/04/10 09:31:52;;;;;;;4.90;2.60;;;14.00;99.90;;;;;;5566310;25;20487;-70
2024/04/10 09:34:22;;;;;;;5.07;2.40;;;14.20;99.90;;;;;;5564911;25;20915;-70
2024/04/10 09:36:51;;;;;;;4.33;2.00;;;14.20;99.90;;;;;;5566323;25;20919;-70
2024/04/10 09:39:25;;;;;;;5.80;2.77;;;14.20;99.90;;;;;;5562711;25;21017;-70
2024/04/10 09:41:58;;;;;;;4.90;2.17;;;14.30;99.90;;;;;;5566208;25;20422;-70
2024/04/10 09:44:32;;;;;;;5.50;2.40;;;14.40;99.90;;;;;;5562763;25;20442;-70
2024/04/10 09:47:01;;;;;;;5.13;2.50;;;14.50;99.90;;;;;;5562660;25;20514;-70
2024/04/10 09:49:37;;;;;;;3.93;1.90;;;14.50;99.90;;;;;;5562772;25;20539;-70
2024/04/10 09:52:05;;;;;;;3.50;2.47;;;14.50;99.90;;;;;;5563107;25;20826;-70
2024/04/10 09:54:38;;;;;;;4.90;2.20;;;14.50;99.90;;;;;;5562603;25;20494;-70
2024/04/10 09:57:09;;;;;;;6.33;3.00;;;14.40;99.90;;;;;;5565977;25;20431;-70
2024/04/10 09:59:40;;;;;;;4.80;2.30;;;14.30;99.90;;;;;;5565867;25;20394;-70
2024/04/10 10:02:16;;;;;;;5.73;2.30;;;14.30;99.90;;;;;;5562513;25;20547;-70
2024/04/10 10:04:46;;;;;;;5.47;2.50;;;14.20;99.90;;;;;;5565757;25;20481;-70
2024/04/10 10:07:20;;;;;;;8.17;2.57;;;14.30;99.90;;;;;;5565785;25;20930;-70
2024/04/10 10:09:52;;;;;;;5.47;2.50;;;14.30;99.90;;;;;;5565074;25;20428;-70
2024/04/10 10:12:27;;;;;;;8.70;3.07;;;14.50;99.90;;;;;;5565532;25;20493;-70
2024/04/10 10:15:08;;;;;;;8.03;2.43;;;14.60;99.90;;;;;;5562719;25;20505;-70
2024/04/10 10:17:36;;;;;;;5.60;1.70;;;14.70;99.90;;;;;;5565489;25;20429;-70
2024/04/10 10:20:25;;;;;;;6.27;2.33;;;14.80;99.90;;;;;;5565939;25;20711;-70
2024/04/10 10:23:00;;;;;;;5.77;2.23;;;14.90;99.90;;;;;;5565370;25;20438;-70
2024/04/10 10:25:34;;;;;;;3.97;1.80;;;14.90;99.90;;;;;;5565125;25;20546;-70
2024/04/10 10:28:08;;;;;;;7.67;2.13;;;14.90;99.90;;;;;;5565447;25;20408;-70
2024/04/10 10:30:39;;;;;;;5.43;2.37;;;14.90;99.90;;;;;;5565423;25;20788;-70
2024/04/10 10:33:12;;;;;;;5.13;2.30;;;14.80;99.90;;;;;;5561917;25;20449;-70
2024/04/10 10:35:42;;;;;;;3.67;1.80;;;14.80;99.90;;;;;;5563755;25;20445;-70
2024/04/10 10:38:10;;;;;;;5.40;2.20;;;14.80;99.90;;;;;;5561797;25;20445;-70
2024/04/10 10:40:43;;;;;;;3.30;1.60;;;14.90;99.90;;;;;;5561821;25;20530;-70
2024/04/10 10:43:11;;;;;;;3.17;1.90;;;14.90;99.90;;;;;;5564211;25;20442;-70
2024/04/10 10:45:42;;;;;;;5.90;1.97;;;14.90;99.90;;;;;;5561585;25;20445;-70
2024/04/10 10:48:14;;;;;;;4.23;1.70;;;14.80;99.90;;;;;;5561701;25;20490;-70
2024/04/10 10:50:45;;;;;;;5.60;2.30;;;14.80;99.90;;;;;;5563917;25;20556;-70
2024/04/10 10:53:14;;;;;;;6.07;2.23;;;14.90;99.90;;;;;;5561535;25;20859;-70
2024/04/10 10:55:56;;;;;;;4.10;2.43;;;14.90;99.90;;;;;;5563801;25;20545;-70
2024/04/10 10:58:25;;;;;;;7.20;2.10;;;15.00;99.90;;;;;;5564854;25;20393;-70
2024/04/10 11:00:55;;;;;;;3.83;1.37;;;15.00;99.90;;;;;;5563718;25;20433;-70
2024/04/10 11:03:25;;;;;;;3.10;1.80;;;15.00;99.90;;;;;;5564681;25;20491;-70
2024/04/10 11:06:09;;;;;;;9.83;2.80;;;15.00;99.90;;;;;;5561557;25;20518;-70
2024/04/10 11:08:37;;;;;;;4.60;2.20;;;14.90;99.90;;;;;;5564311;25;20434;-70
2024/04/10 11:11:15;;;;;;;4.13;1.87;;;14.90;99.90;;;;;;5563022;25;20449;-70
2024/04/10 11:13:47;;;;;;;4.87;2.37;;;14.90;99.90;;;;;;5561094;25;20559;-70
2024/04/10 11:16:27;;;;;;;6.33;2.10;;;14.90;99.90;;;;;;5562950;25;20437;-70
2024/04/10 11:18:55;;;;;;;5.67;2.37;;;14.90;99.90;;;;;;5564000;25;20493;-70
2024/04/10 11:21:25;;;;;;;3.30;2.00;;;14.90;99.90;;;;;;5563079;25;20441;-70
2024/04/10 11:23:53;;;;;;;6.67;2.30;;;15.10;99.90;;;;;;5560916;25;20453;-70
2024/04/10 11:26:27;;;;;;;4.20;2.50;;;15.10;99.90;;;;;;5562401;25;20445;-70
2024/04/10 11:28:56;;;;;;;4.90;2.00;;;15.10;99.90;;;;;;5564850;25;20833;-70
2024/04/10 11:31:26;;;;;;;6.87;2.13;;;15.20;99.90;;;;;;5564744;25;20464;-70
2024/04/10 11:33:53;;;;;;;4.47;2.23;;;15.30;99.90;;;;;;5567681;25;20437;-70
2024/04/10 11:36:24;;;;;;;5.00;2.53;;;15.30;99.90;;;;;;5564619;25;20449;-70
2024/04/10 11:38:51;;;;;;;5.80;2.33;;;15.30;99.90;;;;;;5566525;25;20433;-70
2024/04/10 11:41:21;;;;;;;5.73;2.23;;;15.30;99.90;;;;;;5566451;25;20433;-70
2024/04/10 11:43:51;;;;;;;4.80;2.40;;;15.40;99.90;;;;;;5566299;25;20549;-70
2024/04/10 11:46:21;;;;;;;5.90;2.07;;;15.30;99.90;;;;;;5566416;25;20469;-70
2024/04/10 11:48:49;;;;;;;7.00;2.70;;;15.30;99.90;;;;;;5566019;25;20550;-70
2024/04/10 11:51:19;;;;;;;4.87;2.57;;;15.30;99.90;;;;;;5567585;25;20430;-70
2024/04/10 11:53:47;;;;;;;5.10;2.60;;;15.30;99.90;;;;;;5566164;25;20445;-70
2024/04/10 11:56:17;;;;;;;5.07;2.43;;;15.30;99.90;;;;;;5566340;25;20494;-70
2024/04/10 11:58:44;;;;;;;4.13;2.10;;;15.40;99.90;;;;;;5566422;25;20546;-70
2024/04/10 12:01:16;;;;;;;3.93;2.00;;;15.40;99.90;;;;;;5566051;25;20486;-70
2024/04/10 12:03:46;;;;;;;4.50;2.23;;;15.40;99.90;;;;;;5567284;25;20437;-70
2024/04/10 12:06:16;;;;;;;3.80;2.00;;;15.50;99.90;;;;;;5566040;25;20445;-70
2024/04/10 12:08:44;;;;;;;4.67;2.13;;;15.50;99.90;;;;;;5564129;25;20950;-70
2024/04/10 12:11:14;;;;;;;3.00;2.10;;;15.50;99.90;;;;;;5566070;25;20485;-71
2024/04/10 12:13:42;;;;;;;4.67;2.50;;;15.40;99.90;;;;;;5567303;25;20549;-70
2024/04/10 12:16:12;;;;;;;6.00;2.57;;;15.40;99.90;;;;;;5565915;25;20433;-70
2024/04/10 12:18:42;;;;;;;5.30;3.30;;;15.40;99.90;;;;;;5564059;25;20445;-70
2024/04/10 12:21:12;;;;;;;5.13;3.20;;;15.40;99.90;;;;;;5565932;25;20429;-70
2024/04/10 12:23:40;;;;;;;5.70;3.70;;;15.40;99.90;;;;;;5566196;25;20513;-70
2024/04/10 12:26:11;;;;;;;4.47;2.93;;;15.40;99.90;;;;;;5565748;25;20522;-70
2024/04/10 12:28:39;;;;;;;3.67;2.53;;;15.50;99.90;;;;;;5567058;25;20429;-70
2024/04/10 12:31:09;;;;;;;5.70;3.73;;;15.60;99.90;;;;;;5565619;25;20433;-70
2024/04/10 12:33:37;;;;;;;6.47;3.10;;;15.70;99.90;;;;;;5565652;25;20508;-70
2024/04/10 12:38:56;;;;;;;5.50;3.00;;;16.00;99.90;;;;;;5566033;25;20402;-70
2024/04/10 12:41:26;;;;;;;6.23;3.47;;;16.10;99.90;;;;;;5566463;25;20405;-70
2024/04/10 12:43:57;;;;;;;5.80;3.10;;;16.10;99.90;;;;;;5567293;25;20489;-69
2024/04/10 12:46:28;;;;;;;4.23;2.80;;;16.10;99.90;;;;;;5565661;25;20486;-70
2024/04/10 12:48:55;;;;;;;4.63;2.77;;;16.10;99.90;;;;;;5563818;25;20509;-70
2024/04/10 12:51:28;;;;;;;5.63;2.70;;;16.10;99.90;;;;;;5563777;25;20511;-70
2024/04/10 12:53:56;;;;;;;9.07;2.77;;;16.10;99.90;;;;;;5567002;25;20477;-70
2024/04/10 12:56:26;;;;;;;5.77;2.80;;;16.20;99.90;;;;;;5565522;25;20445;-70
2024/04/10 12:58:53;;;;;;;5.20;3.17;;;16.30;99.90;;;;;;5566582;25;20934;-70
2024/04/10 13:01:24;;;;;;;7.80;3.47;;;16.30;99.90;;;;;;5565415;25;20550;-69
2024/04/10 13:03:52;;;;;;;7.83;3.70;;;16.30;99.90;;;;;;5565412;25;20493;-69
2024/04/10 13:06:24;;;;;;;5.57;2.80;;;16.40;99.90;;;;;;5565420;25;20433;-70
2024/04/10 13:08:55;;;;;;;5.17;3.27;;;16.40;99.90;;;;;;5566748;25;20490;-70